sensor_id;sensor_type;location;lat;lon;timestamp;P1;durP1;ratioP1;P2;durP2;ratioP2
23567;SDS011;11962;50.838;4.430;2023-03-14T00:01:29;9.30;;;1.70;;
23567;SDS011;11962;50.838;4.430;2023-03-14T00:03:55;4.30;;;1.20;;
23567;SDS011;11962;50.838;4.430;2023-03-14T00:06:21;8.57;;;1.60;;
23567;SDS011;11962;50.838;4.430;2023-03-14T00:08:47;5.05;;;1.33;;
23567;SDS011;11962;50.838;4.430;2023-03-14T00:11:14;5.82;;;1.20;;
23567;SDS011;11962;50.838;4.430;2023-03-14T00:13:42;9.07;;;1.38;;
23567;SDS011;11962;50.838;4.430;2023-03-14T00:16:10;12.38;;;1.98;;
23567;SDS011;11962;50.838;4.430;2023-03-14T00:18:37;7.75;;;1.63;;
23567;SDS011;11962;50.838;4.430;2023-03-14T00:21:03;8.55;;;1.92;;
23567;SDS011;11962;50.838;4.430;2023-03-14T00:23:31;8.10;;;2.08;;
23567;SDS011;11962;50.838;4.430;2023-03-14T00:26:01;10.10;;;1.58;;
23567;SDS011;11962;50.838;4.430;2023-03-14T00:28:28;8.60;;;1.60;;
23567;SDS011;11962;50.838;4.430;2023-03-14T00:30:54;13.88;;;2.08;;
23567;SDS011;11962;50.838;4.430;2023-03-14T00:33:22;9.93;;;2.05;;
23567;SDS011;11962;50.838;4.430;2023-03-14T00:36:07;11.18;;;1.98;;
23567;SDS011;11962;50.838;4.430;2023-03-14T00:38:35;8.43;;;1.85;;
23567;SDS011;11962;50.838;4.430;2023-03-14T00:41:05;8.95;;;2.03;;
23567;SDS011;11962;50.838;4.430;2023-03-14T00:43:33;12.60;;;1.73;;
23567;SDS011;11962;50.838;4.430;2023-03-14T00:45:58;7.85;;;1.42;;
23567;SDS011;11962;50.838;4.430;2023-03-14T00:48:24;7.18;;;2.00;;
23567;SDS011;11962;50.838;4.430;2023-03-14T00:50:50;8.30;;;1.70;;
23567;SDS011;11962;50.838;4.430;2023-03-14T00:53:16;14.48;;;2.35;;
23567;SDS011;11962;50.838;4.430;2023-03-14T00:55:42;10.07;;;2.17;;
23567;SDS011;11962;50.838;4.430;2023-03-14T00:58:09;10.48;;;2.15;;
23567;SDS011;11962;50.838;4.430;2023-03-14T01:00:36;9.98;;;1.77;;
23567;SDS011;11962;50.838;4.430;2023-03-14T01:03:02;12.95;;;2.08;;
23567;SDS011;11962;50.838;4.430;2023-03-14T01:05:28;9.52;;;2.00;;
23567;SDS011;11962;50.838;4.430;2023-03-14T01:07:54;7.80;;;1.80;;
23567;SDS011;11962;50.838;4.430;2023-03-14T01:10:20;14.30;;;2.50;;
23567;SDS011;11962;50.838;4.430;2023-03-14T01:12:45;12.95;;;2.17;;
23567;SDS011;11962;50.838;4.430;2023-03-14T01:15:11;12.07;;;2.33;;
23567;SDS011;11962;50.838;4.430;2023-03-14T01:17:37;12.38;;;2.45;;
23567;SDS011;11962;50.838;4.430;2023-03-14T01:20:04;12.98;;;2.10;;
23567;SDS011;11962;50.838;4.430;2023-03-14T01:22:34;10.35;;;1.98;;
23567;SDS011;11962;50.838;4.430;2023-03-14T01:25:05;11.63;;;1.83;;
23567;SDS011;11962;50.838;4.430;2023-03-14T01:27:32;13.57;;;2.30;;
23567;SDS011;11962;50.838;4.430;2023-03-14T01:29:58;12.75;;;2.47;;
23567;SDS011;11962;50.838;4.430;2023-03-14T01:32:24;9.93;;;1.77;;
23567;SDS011;11962;50.838;4.430;2023-03-14T01:34:50;7.72;;;1.73;;
23567;SDS011;11962;50.838;4.430;2023-03-14T01:37:16;6.50;;;1.75;;
23567;SDS011;11962;50.838;4.430;2023-03-14T01:39:42;10.98;;;1.80;;
23567;SDS011;11962;50.838;4.430;2023-03-14T01:42:09;10.10;;;1.80;;
23567;SDS011;11962;50.838;4.430;2023-03-14T01:44:51;10.20;;;2.00;;
23567;SDS011;11962;50.838;4.430;2023-03-14T01:47:19;9.52;;;1.70;;
23567;SDS011;11962;50.838;4.430;2023-03-14T01:49:46;7.25;;;1.55;;
23567;SDS011;11962;50.838;4.430;2023-03-14T01:52:16;7.05;;;1.58;;
23567;SDS011;11962;50.838;4.430;2023-03-14T01:54:54;9.35;;;1.48;;
23567;SDS011;11962;50.838;4.430;2023-03-14T02:00:26;5.45;;;1.25;;
23567;SDS011;11962;50.838;4.430;2023-03-14T02:02:54;6.82;;;1.25;;
23567;SDS011;11962;50.838;4.430;2023-03-14T02:05:25;7.05;;;1.13;;
23567;SDS011;11962;50.838;4.430;2023-03-14T02:07:58;6.43;;;1.05;;
23567;SDS011;11962;50.838;4.430;2023-03-14T02:10:26;4.07;;;0.90;;
23567;SDS011;11962;50.838;4.430;2023-03-14T02:12:55;4.32;;;0.90;;
23567;SDS011;11962;50.838;4.430;2023-03-14T02:15:22;8.10;;;1.60;;
23567;SDS011;11962;50.838;4.430;2023-03-14T02:17:48;4.05;;;1.08;;
23567;SDS011;11962;50.838;4.430;2023-03-14T02:23:07;5.53;;;1.20;;
23567;SDS011;11962;50.838;4.430;2023-03-14T02:25:46;7.47;;;1.23;;
23567;SDS011;11962;50.838;4.430;2023-03-14T02:28:15;6.05;;;0.88;;
23567;SDS011;11962;50.838;4.430;2023-03-14T02:30:45;7.68;;;1.05;;
23567;SDS011;11962;50.838;4.430;2023-03-14T02:33:12;4.35;;;0.73;;
23567;SDS011;11962;50.838;4.430;2023-03-14T02:35:48;7.13;;;1.20;;
23567;SDS011;11962;50.838;4.430;2023-03-14T02:38:37;5.28;;;0.98;;
23567;SDS011;11962;50.838;4.430;2023-03-14T02:41:04;4.05;;;1.10;;
23567;SDS011;11962;50.838;4.430;2023-03-14T02:43:31;5.22;;;1.25;;
23567;SDS011;11962;50.838;4.430;2023-03-14T02:45:56;6.20;;;1.35;;
23567;SDS011;11962;50.838;4.430;2023-03-14T02:48:24;4.47;;;1.50;;
23567;SDS011;11962;50.838;4.430;2023-03-14T02:51:08;5.95;;;2.25;;
23567;SDS011;11962;50.838;4.430;2023-03-14T02:53:36;6.10;;;1.92;;
23567;SDS011;11962;50.838;4.430;2023-03-14T02:56:03;6.15;;;1.92;;
23567;SDS011;11962;50.838;4.430;2023-03-14T02:58:29;4.90;;;1.80;;
23567;SDS011;11962;50.838;4.430;2023-03-14T03:00:55;7.72;;;2.15;;
23567;SDS011;11962;50.838;4.430;2023-03-14T03:03:21;8.40;;;2.10;;
23567;SDS011;11962;50.838;4.430;2023-03-14T03:05:48;12.00;;;2.58;;
23567;SDS011;11962;50.838;4.430;2023-03-14T03:08:18;7.05;;;2.42;;
23567;SDS011;11962;50.838;4.430;2023-03-14T03:10:45;6.55;;;2.22;;
23567;SDS011;11962;50.838;4.430;2023-03-14T03:13:11;8.00;;;2.05;;
23567;SDS011;11962;50.838;4.430;2023-03-14T03:15:37;8.93;;;2.25;;
23567;SDS011;11962;50.838;4.430;2023-03-14T03:18:03;8.30;;;2.28;;
23567;SDS011;11962;50.838;4.430;2023-03-14T03:20:29;5.82;;;1.73;;
23567;SDS011;11962;50.838;4.430;2023-03-14T03:22:54;9.10;;;2.50;;
23567;SDS011;11962;50.838;4.430;2023-03-14T03:25:20;10.63;;;2.63;;
23567;SDS011;11962;50.838;4.430;2023-03-14T03:27:46;9.52;;;2.50;;
23567;SDS011;11962;50.838;4.430;2023-03-14T03:30:12;9.77;;;2.28;;
23567;SDS011;11962;50.838;4.430;2023-03-14T03:32:38;10.52;;;2.70;;
23567;SDS011;11962;50.838;4.430;2023-03-14T03:35:06;10.27;;;2.92;;
23567;SDS011;11962;50.838;4.430;2023-03-14T03:37:32;11.68;;;2.50;;
23567;SDS011;11962;50.838;4.430;2023-03-14T03:39:59;9.50;;;3.28;;
23567;SDS011;11962;50.838;4.430;2023-03-14T03:42:26;11.35;;;2.88;;
23567;SDS011;11962;50.838;4.430;2023-03-14T03:44:52;7.50;;;2.60;;
23567;SDS011;11962;50.838;4.430;2023-03-14T03:47:18;9.38;;;2.35;;
23567;SDS011;11962;50.838;4.430;2023-03-14T03:49:43;9.05;;;2.58;;
23567;SDS011;11962;50.838;4.430;2023-03-14T03:52:09;10.75;;;2.55;;
23567;SDS011;11962;50.838;4.430;2023-03-14T03:54:35;10.10;;;2.17;;
23567;SDS011;11962;50.838;4.430;2023-03-14T03:57:01;8.60;;;2.45;;
23567;SDS011;11962;50.838;4.430;2023-03-14T03:59:27;11.25;;;2.97;;
23567;SDS011;11962;50.838;4.430;2023-03-14T04:01:52;9.48;;;2.17;;
23567;SDS011;11962;50.838;4.430;2023-03-14T04:04:18;4.93;;;2.15;;
23567;SDS011;11962;50.838;4.430;2023-03-14T04:06:44;7.65;;;2.78;;
23567;SDS011;11962;50.838;4.430;2023-03-14T04:09:09;10.75;;;2.72;;
23567;SDS011;11962;50.838;4.430;2023-03-14T04:11:35;5.82;;;2.85;;
23567;SDS011;11962;50.838;4.430;2023-03-14T04:14:03;8.15;;;3.25;;
23567;SDS011;11962;50.838;4.430;2023-03-14T04:16:29;7.80;;;3.03;;
23567;SDS011;11962;50.838;4.430;2023-03-14T04:18:58;5.43;;;3.10;;
23567;SDS011;11962;50.838;4.430;2023-03-14T04:21:24;9.02;;;3.63;;
23567;SDS011;11962;50.838;4.430;2023-03-14T04:23:50;8.18;;;3.33;;
23567;SDS011;11962;50.838;4.430;2023-03-14T04:26:16;7.85;;;3.33;;
23567;SDS011;11962;50.838;4.430;2023-03-14T04:28:42;10.35;;;3.97;;
23567;SDS011;11962;50.838;4.430;2023-03-14T04:31:14;7.60;;;3.83;;
23567;SDS011;11962;50.838;4.430;2023-03-14T04:33:43;10.30;;;4.10;;
23567;SDS011;11962;50.838;4.430;2023-03-14T04:36:09;12.20;;;4.32;;
23567;SDS011;11962;50.838;4.430;2023-03-14T04:38:35;11.73;;;4.22;;
23567;SDS011;11962;50.838;4.430;2023-03-14T04:41:01;10.18;;;4.30;;
23567;SDS011;11962;50.838;4.430;2023-03-14T04:43:27;9.45;;;3.90;;
23567;SDS011;11962;50.838;4.430;2023-03-14T04:45:53;5.50;;;3.58;;
23567;SDS011;11962;50.838;4.430;2023-03-14T04:48:20;8.20;;;3.85;;
23567;SDS011;11962;50.838;4.430;2023-03-14T04:50:46;8.50;;;3.70;;
23567;SDS011;11962;50.838;4.430;2023-03-14T04:53:13;5.47;;;3.58;;
23567;SDS011;11962;50.838;4.430;2023-03-14T04:55:39;7.40;;;3.47;;
23567;SDS011;11962;50.838;4.430;2023-03-14T04:58:05;6.72;;;3.78;;
23567;SDS011;11962;50.838;4.430;2023-03-14T05:00:30;7.03;;;3.85;;
23567;SDS011;11962;50.838;4.430;2023-03-14T05:05:25;7.13;;;3.53;;
23567;SDS011;11962;50.838;4.430;2023-03-14T05:07:50;4.25;;;3.38;;
23567;SDS011;11962;50.838;4.430;2023-03-14T05:10:16;6.68;;;3.78;;
23567;SDS011;11962;50.838;4.430;2023-03-14T05:12:42;4.50;;;3.33;;
23567;SDS011;11962;50.838;4.430;2023-03-14T05:15:08;7.40;;;3.15;;
23567;SDS011;11962;50.838;4.430;2023-03-14T05:17:34;6.25;;;3.00;;
23567;SDS011;11962;50.838;4.430;2023-03-14T05:20:00;8.20;;;3.45;;
23567;SDS011;11962;50.838;4.430;2023-03-14T05:22:26;8.30;;;2.88;;
23567;SDS011;11962;50.838;4.430;2023-03-14T05:24:51;3.60;;;2.50;;
23567;SDS011;11962;50.838;4.430;2023-03-14T05:27:21;6.03;;;2.72;;
23567;SDS011;11962;50.838;4.430;2023-03-14T05:29:47;2.88;;;2.10;;
23567;SDS011;11962;50.838;4.430;2023-03-14T05:32:13;3.80;;;2.22;;
23567;SDS011;11962;50.838;4.430;2023-03-14T05:34:38;2.85;;;2.20;;
23567;SDS011;11962;50.838;4.430;2023-03-14T05:37:04;3.05;;;2.30;;
23567;SDS011;11962;50.838;4.430;2023-03-14T05:39:30;2.75;;;1.83;;
23567;SDS011;11962;50.838;4.430;2023-03-14T05:41:55;3.85;;;1.90;;
23567;SDS011;11962;50.838;4.430;2023-03-14T05:44:21;4.25;;;2.00;;
23567;SDS011;11962;50.838;4.430;2023-03-14T05:46:47;3.22;;;1.92;;
23567;SDS011;11962;50.838;4.430;2023-03-14T05:49:13;4.18;;;2.38;;
23567;SDS011;11962;50.838;4.430;2023-03-14T05:51:38;6.10;;;2.10;;
23567;SDS011;11962;50.838;4.430;2023-03-14T05:54:04;4.00;;;2.10;;
23567;SDS011;11962;50.838;4.430;2023-03-14T05:56:30;3.95;;;2.25;;
23567;SDS011;11962;50.838;4.430;2023-03-14T05:58:55;5.53;;;2.53;;
23567;SDS011;11962;50.838;4.430;2023-03-14T06:01:21;4.57;;;2.40;;
23567;SDS011;11962;50.838;4.430;2023-03-14T06:03:47;4.68;;;2.28;;
23567;SDS011;11962;50.838;4.430;2023-03-14T06:06:12;5.53;;;2.50;;
23567;SDS011;11962;50.838;4.430;2023-03-14T06:08:38;7.03;;;2.83;;
23567;SDS011;11962;50.838;4.430;2023-03-14T06:11:04;5.90;;;2.85;;
23567;SDS011;11962;50.838;4.430;2023-03-14T06:13:30;4.07;;;2.50;;
23567;SDS011;11962;50.838;4.430;2023-03-14T06:15:56;5.53;;;2.63;;
23567;SDS011;11962;50.838;4.430;2023-03-14T06:18:21;4.57;;;2.45;;
23567;SDS011;11962;50.838;4.430;2023-03-14T06:20:47;4.10;;;2.67;;
23567;SDS011;11962;50.838;4.430;2023-03-14T06:23:13;6.68;;;2.50;;
23567;SDS011;11962;50.838;4.430;2023-03-14T06:25:38;6.25;;;2.75;;
23567;SDS011;11962;50.838;4.430;2023-03-14T06:28:04;5.05;;;2.35;;
23567;SDS011;11962;50.838;4.430;2023-03-14T06:30:30;4.60;;;3.00;;
23567;SDS011;11962;50.838;4.430;2023-03-14T06:32:55;7.40;;;3.00;;
23567;SDS011;11962;50.838;4.430;2023-03-14T06:35:22;5.28;;;2.45;;
23567;SDS011;11962;50.838;4.430;2023-03-14T06:37:48;3.63;;;2.25;;
23567;SDS011;11962;50.838;4.430;2023-03-14T06:40:14;4.82;;;2.42;;
23567;SDS011;11962;50.838;4.430;2023-03-14T06:45:09;3.75;;;1.95;;
23567;SDS011;11962;50.838;4.430;2023-03-14T06:47:35;3.10;;;1.95;;
23567;SDS011;11962;50.838;4.430;2023-03-14T06:50:01;3.10;;;2.00;;
23567;SDS011;11962;50.838;4.430;2023-03-14T06:52:27;2.83;;;2.10;;
23567;SDS011;11962;50.838;4.430;2023-03-14T06:54:52;3.75;;;2.05;;
23567;SDS011;11962;50.838;4.430;2023-03-14T06:57:18;5.63;;;2.50;;
23567;SDS011;11962;50.838;4.430;2023-03-14T06:59:44;4.25;;;2.22;;
23567;SDS011;11962;50.838;4.430;2023-03-14T07:02:10;4.65;;;2.22;;
23567;SDS011;11962;50.838;4.430;2023-03-14T07:04:37;2.75;;;2.15;;
23567;SDS011;11962;50.838;4.430;2023-03-14T07:07:03;2.67;;;2.10;;
23567;SDS011;11962;50.838;4.430;2023-03-14T07:09:29;4.35;;;2.13;;
23567;SDS011;11962;50.838;4.430;2023-03-14T07:11:55;5.05;;;2.42;;
23567;SDS011;11962;50.838;4.430;2023-03-14T07:14:21;3.88;;;2.55;;
23567;SDS011;11962;50.838;4.430;2023-03-14T07:16:46;4.00;;;2.45;;
23567;SDS011;11962;50.838;4.430;2023-03-14T07:19:12;4.18;;;2.20;;
23567;SDS011;11962;50.838;4.430;2023-03-14T07:21:38;3.75;;;1.90;;
23567;SDS011;11962;50.838;4.430;2023-03-14T07:24:04;5.75;;;2.15;;
23567;SDS011;11962;50.838;4.430;2023-03-14T07:26:29;4.07;;;1.95;;
23567;SDS011;11962;50.838;4.430;2023-03-14T07:28:56;3.92;;;1.70;;
23567;SDS011;11962;50.838;4.430;2023-03-14T07:31:22;1.80;;;1.40;;
23567;SDS011;11962;50.838;4.430;2023-03-14T07:33:48;3.20;;;1.50;;
23567;SDS011;11962;50.838;4.430;2023-03-14T07:36:14;2.80;;;1.58;;
23567;SDS011;11962;50.838;4.430;2023-03-14T07:38:40;6.78;;;1.70;;
23567;SDS011;11962;50.838;4.430;2023-03-14T07:41:06;10.50;;;2.20;;
23567;SDS011;11962;50.838;4.430;2023-03-14T07:43:32;4.68;;;2.10;;
23567;SDS011;11962;50.838;4.430;2023-03-14T07:45:57;5.47;;;2.05;;
23567;SDS011;11962;50.838;4.430;2023-03-14T07:48:23;3.78;;;1.80;;
23567;SDS011;11962;50.838;4.430;2023-03-14T07:50:52;4.20;;;1.83;;
23567;SDS011;11962;50.838;4.430;2023-03-14T07:53:18;4.40;;;1.83;;
23567;SDS011;11962;50.838;4.430;2023-03-14T07:55:44;3.75;;;1.90;;
23567;SDS011;11962;50.838;4.430;2023-03-14T07:58:11;4.80;;;3.05;;
23567;SDS011;11962;50.838;4.430;2023-03-14T08:00:37;3.53;;;2.40;;
23567;SDS011;11962;50.838;4.430;2023-03-14T08:03:03;4.25;;;2.72;;
23567;SDS011;11962;50.838;4.430;2023-03-14T08:05:29;4.95;;;2.70;;
23567;SDS011;11962;50.838;4.430;2023-03-14T08:07:55;11.45;;;3.42;;
23567;SDS011;11962;50.838;4.430;2023-03-14T08:10:21;7.55;;;2.83;;
23567;SDS011;11962;50.838;4.430;2023-03-14T08:12:49;6.95;;;3.22;;
23567;SDS011;11962;50.838;4.430;2023-03-14T08:15:20;6.88;;;3.47;;
23567;SDS011;11962;50.838;4.430;2023-03-14T08:17:45;7.07;;;3.42;;
23567;SDS011;11962;50.838;4.430;2023-03-14T08:20:16;5.70;;;3.40;;
23567;SDS011;11962;50.838;4.430;2023-03-14T08:22:46;6.55;;;3.35;;
23567;SDS011;11962;50.838;4.430;2023-03-14T08:39:37;3.88;;;1.88;;
23567;SDS011;11962;50.838;4.430;2023-03-14T08:42:03;6.35;;;2.58;;
23567;SDS011;11962;50.838;4.430;2023-03-14T08:44:29;3.35;;;1.70;;
23567;SDS011;11962;50.838;4.430;2023-03-14T08:46:55;4.57;;;1.80;;
23567;SDS011;11962;50.838;4.430;2023-03-14T08:49:30;2.55;;;1.70;;
23567;SDS011;11962;50.838;4.430;2023-03-14T08:51:56;5.82;;;2.15;;
23567;SDS011;11962;50.838;4.430;2023-03-14T08:54:29;3.17;;;1.98;;
23567;SDS011;11962;50.838;4.430;2023-03-14T08:56:55;4.32;;;2.15;;
23567;SDS011;11962;50.838;4.430;2023-03-14T08:59:21;3.78;;;2.05;;
23567;SDS011;11962;50.838;4.430;2023-03-14T09:01:48;3.65;;;2.20;;
23567;SDS011;11962;50.838;4.430;2023-03-14T09:04:14;4.68;;;2.30;;
23567;SDS011;11962;50.838;4.430;2023-03-14T09:06:40;4.07;;;2.30;;
23567;SDS011;11962;50.838;4.430;2023-03-14T09:09:07;6.32;;;2.55;;
23567;SDS011;11962;50.838;4.430;2023-03-14T09:11:33;5.72;;;2.40;;
23567;SDS011;11962;50.838;4.430;2023-03-14T09:13:59;2.92;;;2.35;;
23567;SDS011;11962;50.838;4.430;2023-03-14T09:16:25;5.15;;;2.53;;
23567;SDS011;11962;50.838;4.430;2023-03-14T09:18:51;7.05;;;2.65;;
23567;SDS011;11962;50.838;4.430;2023-03-14T09:21:31;7.03;;;2.50;;
23567;SDS011;11962;50.838;4.430;2023-03-14T09:23:59;9.57;;;2.67;;
23567;SDS011;11962;50.838;4.430;2023-03-14T09:26:25;6.72;;;2.65;;
23567;SDS011;11962;50.838;4.430;2023-03-14T09:28:52;10.32;;;3.22;;
23567;SDS011;11962;50.838;4.430;2023-03-14T09:31:18;6.05;;;2.40;;
23567;SDS011;11962;50.838;4.430;2023-03-14T09:33:45;11.70;;;3.22;;
23567;SDS011;11962;50.838;4.430;2023-03-14T09:36:12;7.32;;;2.65;;
23567;SDS011;11962;50.838;4.430;2023-03-14T09:38:38;9.93;;;2.50;;
23567;SDS011;11962;50.838;4.430;2023-03-14T09:41:11;9.68;;;3.00;;
23567;SDS011;11962;50.838;4.430;2023-03-14T09:44:16;9.80;;;2.72;;
23567;SDS011;11962;50.838;4.430;2023-03-14T09:47:13;7.72;;;2.70;;
23567;SDS011;11962;50.838;4.430;2023-03-14T09:50:00;6.55;;;2.00;;
23567;SDS011;11962;50.838;4.430;2023-03-14T09:52:28;11.48;;;2.60;;
23567;SDS011;11962;50.838;4.430;2023-03-14T09:54:58;12.75;;;2.83;;
23567;SDS011;11962;50.838;4.430;2023-03-14T09:57:28;9.75;;;2.47;;
23567;SDS011;11962;50.838;4.430;2023-03-14T09:59:56;12.55;;;2.55;;
23567;SDS011;11962;50.838;4.430;2023-03-14T10:02:28;7.00;;;2.55;;
23567;SDS011;11962;50.838;4.430;2023-03-14T10:04:59;9.75;;;3.13;;
23567;SDS011;11962;50.838;4.430;2023-03-14T10:07:29;9.73;;;2.45;;
23567;SDS011;11962;50.838;4.430;2023-03-14T10:10:10;8.25;;;2.30;;
23567;SDS011;11962;50.838;4.430;2023-03-14T10:12:40;7.78;;;2.58;;
23567;SDS011;11962;50.838;4.430;2023-03-14T10:15:11;7.13;;;2.28;;
23567;SDS011;11962;50.838;4.430;2023-03-14T10:20:15;7.97;;;2.25;;
23567;SDS011;11962;50.838;4.430;2023-03-14T10:22:52;7.45;;;2.13;;
23567;SDS011;11962;50.838;4.430;2023-03-14T10:25:57;11.02;;;2.50;;
23567;SDS011;11962;50.838;4.430;2023-03-14T10:28:27;11.95;;;2.28;;
23567;SDS011;11962;50.838;4.430;2023-03-14T10:30:56;6.75;;;2.17;;
23567;SDS011;11962;50.838;4.430;2023-03-14T10:35:54;6.22;;;2.15;;
23567;SDS011;11962;50.838;4.430;2023-03-14T10:38:23;10.73;;;2.25;;
23567;SDS011;11962;50.838;4.430;2023-03-14T10:40:52;7.35;;;1.98;;
23567;SDS011;11962;50.838;4.430;2023-03-14T10:43:22;8.45;;;2.00;;
23567;SDS011;11962;50.838;4.430;2023-03-14T10:45:55;4.18;;;2.10;;
23567;SDS011;11962;50.838;4.430;2023-03-14T10:50:57;6.45;;;2.10;;
23567;SDS011;11962;50.838;4.430;2023-03-14T10:53:47;8.77;;;1.85;;
23567;SDS011;11962;50.838;4.430;2023-03-14T10:56:21;8.93;;;2.13;;
23567;SDS011;11962;50.838;4.430;2023-03-14T10:58:49;6.43;;;1.40;;
23567;SDS011;11962;50.838;4.430;2023-03-14T11:03:54;8.45;;;1.95;;
23567;SDS011;11962;50.838;4.430;2023-03-14T11:06:39;6.45;;;1.95;;
23567;SDS011;11962;50.838;4.430;2023-03-14T11:09:18;6.95;;;1.50;;
23567;SDS011;11962;50.838;4.430;2023-03-14T11:12:02;7.18;;;2.00;;
23567;SDS011;11962;50.838;4.430;2023-03-14T11:14:54;10.75;;;2.08;;
23567;SDS011;11962;50.838;4.430;2023-03-14T11:29:20;0.75;;;0.70;;
23567;SDS011;11962;50.838;4.430;2023-03-14T11:31:54;4.57;;;0.90;;
23567;SDS011;11962;50.838;4.430;2023-03-14T11:34:27;3.92;;;0.85;;
23567;SDS011;11962;50.838;4.430;2023-03-14T11:36:59;2.78;;;0.98;;
23567;SDS011;11962;50.838;4.430;2023-03-14T11:39:37;3.17;;;1.00;;
23567;SDS011;11962;50.838;4.430;2023-03-14T11:42:10;3.80;;;0.80;;
23567;SDS011;11962;50.838;4.430;2023-03-14T11:45:18;3.08;;;0.90;;
23567;SDS011;11962;50.838;4.430;2023-03-14T11:47:55;1.50;;;0.68;;
23567;SDS011;11962;50.838;4.430;2023-03-14T11:50:35;1.25;;;0.80;;
23567;SDS011;11962;50.838;4.430;2023-03-14T11:53:09;0.68;;;0.63;;
23567;SDS011;11962;50.838;4.430;2023-03-14T11:58:40;2.33;;;0.98;;
23567;SDS011;11962;50.838;4.430;2023-03-14T12:01:12;2.08;;;0.90;;
23567;SDS011;11962;50.838;4.430;2023-03-14T12:03:44;3.38;;;1.10;;
23567;SDS011;11962;50.838;4.430;2023-03-14T12:06:22;3.08;;;0.73;;
23567;SDS011;11962;50.838;4.430;2023-03-14T12:09:18;4.35;;;0.80;;
23567;SDS011;11962;50.838;4.430;2023-03-14T12:11:57;2.35;;;1.00;;
23567;SDS011;11962;50.838;4.430;2023-03-14T12:14:32;4.03;;;0.90;;
23567;SDS011;11962;50.838;4.430;2023-03-14T12:19:38;0.73;;;0.70;;
23567;SDS011;11962;50.838;4.430;2023-03-14T12:24:31;2.53;;;0.90;;
23567;SDS011;11962;50.838;4.430;2023-03-14T12:27:01;4.90;;;1.10;;
23567;SDS011;11962;50.838;4.430;2023-03-14T12:29:28;3.22;;;1.02;;
23567;SDS011;11962;50.838;4.430;2023-03-14T12:43:29;3.65;;;1.65;;
23567;SDS011;11962;50.838;4.430;2023-03-14T13:48:57;17.52;;;2.50;;
23567;SDS011;11962;50.838;4.430;2023-03-14T13:51:27;11.55;;;2.55;;
23567;SDS011;11962;50.838;4.430;2023-03-14T13:53:56;8.20;;;2.40;;
23567;SDS011;11962;50.838;4.430;2023-03-14T13:56:27;9.38;;;2.60;;
23567;SDS011;11962;50.838;4.430;2023-03-14T13:58:56;14.88;;;2.60;;
23567;SDS011;11962;50.838;4.430;2023-03-14T14:01:23;17.00;;;3.15;;
23567;SDS011;11962;50.838;4.430;2023-03-14T14:03:50;17.38;;;3.05;;
23567;SDS011;11962;50.838;4.430;2023-03-14T14:09:02;17.20;;;3.20;;
23567;SDS011;11962;50.838;4.430;2023-03-14T14:14:06;12.98;;;2.90;;
23567;SDS011;11962;50.838;4.430;2023-03-14T14:16:40;18.55;;;3.83;;
23567;SDS011;11962;50.838;4.430;2023-03-14T14:19:08;18.00;;;3.45;;
23567;SDS011;11962;50.838;4.430;2023-03-14T14:21:35;18.27;;;3.00;;
23567;SDS011;11962;50.838;4.430;2023-03-14T14:24:01;15.50;;;3.33;;
23567;SDS011;11962;50.838;4.430;2023-03-14T14:26:28;16.48;;;3.30;;
23567;SDS011;11962;50.838;4.430;2023-03-14T14:29:04;18.35;;;3.67;;
23567;SDS011;11962;50.838;4.430;2023-03-14T14:31:31;17.38;;;3.40;;
23567;SDS011;11962;50.838;4.430;2023-03-14T14:33:58;18.90;;;2.60;;
23567;SDS011;11962;50.838;4.430;2023-03-14T14:39:03;15.02;;;2.22;;
23567;SDS011;11962;50.838;4.430;2023-03-14T14:41:31;14.20;;;2.28;;
23567;SDS011;11962;50.838;4.430;2023-03-14T14:44:00;9.20;;;2.22;;
23567;SDS011;11962;50.838;4.430;2023-03-14T14:46:30;12.10;;;2.17;;
23567;SDS011;11962;50.838;4.430;2023-03-14T14:49:09;7.53;;;2.00;;
23567;SDS011;11962;50.838;4.430;2023-03-14T14:51:42;14.07;;;1.90;;
23567;SDS011;11962;50.838;4.430;2023-03-14T14:54:11;9.48;;;1.70;;
23567;SDS011;11962;50.838;4.430;2023-03-14T14:56:51;5.60;;;1.10;;
23567;SDS011;11962;50.838;4.430;2023-03-14T14:59:20;4.03;;;1.08;;
23567;SDS011;11962;50.838;4.430;2023-03-14T15:01:54;3.80;;;0.70;;
23567;SDS011;11962;50.838;4.430;2023-03-14T15:04:24;2.75;;;0.93;;
23567;SDS011;11962;50.838;4.430;2023-03-14T15:06:51;1.98;;;0.70;;
23567;SDS011;11962;50.838;4.430;2023-03-14T15:09:30;2.67;;;0.80;;
23567;SDS011;11962;50.838;4.430;2023-03-14T15:11:58;0.75;;;0.45;;
23567;SDS011;11962;50.838;4.430;2023-03-14T15:14:28;2.75;;;0.60;;
23567;SDS011;11962;50.838;4.430;2023-03-14T15:16:54;3.58;;;1.10;;
23567;SDS011;11962;50.838;4.430;2023-03-14T15:19:21;4.80;;;1.98;;
23567;SDS011;11962;50.838;4.430;2023-03-14T15:21:53;3.22;;;1.73;;
23567;SDS011;11962;50.838;4.430;2023-03-14T15:31:02;5.63;;;1.27;;
23567;SDS011;11962;50.838;4.430;2023-03-14T15:33:31;3.63;;;1.25;;
23567;SDS011;11962;50.838;4.430;2023-03-14T15:36:00;5.88;;;1.52;;
23567;SDS011;11962;50.838;4.430;2023-03-14T15:38:30;3.95;;;1.20;;
23567;SDS011;11962;50.838;4.430;2023-03-14T15:41:01;4.75;;;1.10;;
23567;SDS011;11962;50.838;4.430;2023-03-14T15:46:38;4.90;;;1.52;;
23567;SDS011;11962;50.838;4.430;2023-03-14T15:49:09;3.03;;;0.95;;
23567;SDS011;11962;50.838;4.430;2023-03-14T15:51:35;3.88;;;1.50;;
23567;SDS011;11962;50.838;4.430;2023-03-14T15:54:01;4.32;;;1.77;;
23567;SDS011;11962;50.838;4.430;2023-03-14T15:56:27;3.75;;;1.63;;
23567;SDS011;11962;50.838;4.430;2023-03-14T15:58:55;6.13;;;1.48;;
23567;SDS011;11962;50.838;4.430;2023-03-14T16:01:21;2.78;;;1.13;;
23567;SDS011;11962;50.838;4.430;2023-03-14T16:03:48;2.72;;;0.90;;
23567;SDS011;11962;50.838;4.430;2023-03-14T16:06:15;4.57;;;1.20;;
23567;SDS011;11962;50.838;4.430;2023-03-14T16:08:41;2.75;;;1.50;;
23567;SDS011;11962;50.838;4.430;2023-03-14T16:11:16;6.70;;;1.58;;
23567;SDS011;11962;50.838;4.430;2023-03-14T16:14:03;4.57;;;1.98;;
23567;SDS011;11962;50.838;4.430;2023-03-14T16:16:29;4.93;;;1.60;;
23567;SDS011;11962;50.838;4.430;2023-03-14T16:18:55;3.58;;;1.90;;
23567;SDS011;11962;50.838;4.430;2023-03-14T16:21:24;5.00;;;1.80;;
23567;SDS011;11962;50.838;4.430;2023-03-14T16:23:53;4.05;;;1.77;;
23567;SDS011;11962;50.838;4.430;2023-03-14T16:26:19;4.97;;;2.03;;
23567;SDS011;11962;50.838;4.430;2023-03-14T16:28:45;5.90;;;1.80;;
23567;SDS011;11962;50.838;4.430;2023-03-14T16:31:15;6.60;;;1.95;;
23567;SDS011;11962;50.838;4.430;2023-03-14T16:33:46;5.20;;;2.03;;
23567;SDS011;11962;50.838;4.430;2023-03-14T16:36:14;7.45;;;2.30;;
23567;SDS011;11962;50.838;4.430;2023-03-14T16:38:41;8.00;;;1.83;;
23567;SDS011;11962;50.838;4.430;2023-03-14T16:41:15;9.23;;;2.10;;
23567;SDS011;11962;50.838;4.430;2023-03-14T16:43:43;4.90;;;1.60;;
23567;SDS011;11962;50.838;4.430;2023-03-14T16:46:11;8.02;;;2.65;;
23567;SDS011;11962;50.838;4.430;2023-03-14T16:48:41;9.52;;;3.80;;
23567;SDS011;11962;50.838;4.430;2023-03-14T16:51:07;9.27;;;3.30;;
23567;SDS011;11962;50.838;4.430;2023-03-14T16:53:34;10.38;;;3.53;;
23567;SDS011;11962;50.838;4.430;2023-03-14T16:56:00;13.88;;;4.47;;
23567;SDS011;11962;50.838;4.430;2023-03-14T16:58:26;10.93;;;2.50;;
23567;SDS011;11962;50.838;4.430;2023-03-14T17:01:37;9.25;;;2.22;;
23567;SDS011;11962;50.838;4.430;2023-03-14T17:04:09;12.10;;;2.53;;
23567;SDS011;11962;50.838;4.430;2023-03-14T17:06:39;8.25;;;2.25;;
23567;SDS011;11962;50.838;4.430;2023-03-14T17:09:11;10.55;;;2.35;;
23567;SDS011;11962;50.838;4.430;2023-03-14T17:11:45;15.30;;;2.55;;
23567;SDS011;11962;50.838;4.430;2023-03-14T17:14:16;13.55;;;2.35;;
23567;SDS011;11962;50.838;4.430;2023-03-14T17:16:44;16.95;;;2.38;;
23567;SDS011;11962;50.838;4.430;2023-03-14T17:19:16;11.85;;;2.17;;
23567;SDS011;11962;50.838;4.430;2023-03-14T17:21:43;13.30;;;2.17;;
23567;SDS011;11962;50.838;4.430;2023-03-14T17:24:09;10.15;;;2.00;;